createdAt,value
2023-06-02T07:46:01.165Z,22.74
2023-06-02T07:46:12.585Z,22.76
2023-06-02T07:46:24.172Z,22.81
2023-06-02T07:46:35.511Z,22.83
2023-06-02T07:46:47.152Z,22.85
2023-06-02T07:46:58.552Z,22.86
2023-06-02T07:47:10.273Z,22.88
2023-06-02T07:47:21.620Z,22.89
2023-06-02T07:47:33.253Z,22.91
2023-06-02T07:47:44.693Z,22.92
2023-06-02T07:47:56.377Z,22.94
2023-06-02T07:48:07.768Z,22.94
2023-06-02T07:48:19.415Z,22.96
2023-06-02T07:48:30.769Z,22.97
2023-06-02T07:48:42.337Z,22.98
2023-06-02T07:48:53.665Z,22.98
2023-06-02T07:49:05.270Z,23.00
2023-06-02T07:49:16.589Z,23.00
2023-06-02T07:49:28.196Z,23.02
2023-06-02T07:49:39.574Z,23.03
2023-06-02T07:49:51.210Z,23.04
2023-06-02T07:50:02.602Z,23.03
2023-06-02T07:50:14.190Z,23.05
2023-06-02T07:50:25.631Z,23.05
2023-06-02T07:50:37.247Z,23.07
2023-06-02T07:50:48.569Z,23.08
2023-06-02T07:51:00.177Z,23.08
2023-06-02T07:51:11.500Z,23.09
2023-06-02T07:51:23.075Z,23.10
2023-06-02T07:51:34.408Z,23.11
2023-06-02T07:51:45.990Z,23.11
2023-06-02T07:51:57.435Z,23.12
2023-06-02T07:52:09.024Z,23.13
2023-06-02T07:52:20.465Z,23.13
2023-06-02T07:52:32.037Z,23.15
2023-06-02T07:52:43.353Z,23.14
2023-06-02T07:52:54.944Z,23.15
2023-06-02T07:53:06.265Z,23.16
2023-06-02T07:53:17.850Z,23.17
2023-06-02T07:53:29.204Z,23.17
2023-06-02T07:53:40.863Z,23.17
2023-06-02T07:53:52.241Z,23.17
2023-06-02T07:54:03.839Z,23.18
2023-06-02T07:54:15.166Z,23.18
2023-06-02T07:54:26.790Z,23.19
2023-06-02T07:54:38.103Z,23.20
2023-06-02T07:54:49.693Z,23.20
2023-06-02T07:55:01.016Z,23.21
2023-06-02T07:55:12.647Z,23.21
2023-06-02T07:55:23.976Z,23.21
2023-06-02T07:55:35.642Z,23.22
2023-06-02T07:55:47.018Z,23.23
2023-06-02T07:55:58.639Z,23.23
2023-06-02T07:56:10.015Z,23.24
2023-06-02T07:56:21.758Z,23.25
2023-06-02T07:56:33.100Z,23.24
2023-06-02T07:56:44.687Z,23.25
2023-06-02T07:56:56.042Z,23.25
2023-06-02T07:57:07.627Z,23.25
2023-06-02T07:57:18.958Z,23.26
2023-06-02T07:57:30.555Z,23.26
2023-06-02T07:57:41.903Z,23.27
2023-06-02T07:57:53.486Z,23.28
2023-06-02T07:58:04.816Z,23.27
2023-06-02T07:58:16.425Z,23.29
2023-06-02T07:58:27.766Z,23.29
2023-06-02T07:58:39.336Z,23.29
2023-06-02T07:58:50.687Z,23.29
2023-06-02T07:59:02.285Z,23.30
2023-06-02T07:59:13.660Z,23.30
2023-06-02T07:59:25.218Z,23.30
2023-06-02T07:59:36.520Z,23.30
2023-06-02T07:59:48.097Z,23.31
2023-06-02T07:59:59.421Z,23.31
2023-06-02T08:00:11.001Z,23.31
2023-06-02T08:00:22.333Z,23.32
2023-06-02T08:00:33.907Z,23.32
2023-06-02T08:00:45.220Z,23.32
2023-06-02T08:00:56.795Z,23.33
2023-06-02T08:01:08.247Z,23.33
2023-06-02T08:01:19.814Z,23.33
2023-06-02T08:01:31.145Z,23.33
2023-06-02T08:01:42.758Z,23.33
2023-06-02T08:01:54.119Z,23.34
2023-06-02T08:02:05.692Z,23.34
2023-06-02T08:02:17.231Z,23.34
2023-06-02T08:02:28.922Z,23.35
2023-06-02T08:02:40.336Z,23.35
2023-06-02T08:02:52.089Z,23.35
2023-06-02T08:03:03.508Z,23.36
2023-06-02T08:03:15.151Z,23.36
2023-06-02T08:03:26.592Z,23.37
2023-06-02T08:03:38.371Z,23.36
2023-06-02T08:03:50.023Z,23.37
2023-06-02T08:04:02.160Z,23.37
2023-06-02T08:04:13.729Z,23.38
2023-06-02T08:04:25.511Z,23.38
2023-06-02T08:04:37.007Z,23.38
2023-06-02T08:04:48.858Z,23.38
2023-06-02T08:05:00.434Z,23.38
2023-06-02T08:05:12.052Z,23.39
2023-06-02T08:05:23.389Z,23.39
2023-06-02T08:05:34.970Z,23.39
2023-06-02T08:05:46.294Z,23.40
2023-06-02T08:05:57.877Z,23.40
2023-06-02T08:06:09.184Z,23.40
2023-06-02T08:06:20.774Z,23.41
2023-06-02T08:06:32.094Z,23.41
2023-06-02T08:06:44.150Z,23.41
2023-06-02T08:06:55.805Z,23.42
2023-06-02T08:07:07.162Z,23.42
2023-06-02T08:07:18.762Z,23.43
2023-06-02T08:07:30.117Z,23.43
2023-06-02T08:07:41.708Z,23.43
2023-06-02T08:07:53.055Z,23.42
2023-06-02T08:08:05.286Z,23.43
2023-06-02T08:08:14.846Z,23.44
2023-06-02T08:08:26.427Z,23.45
2023-06-02T08:08:37.780Z,23.44
2023-06-02T08:08:49.370Z,23.45
2023-06-02T08:09:00.715Z,23.44
2023-06-02T08:09:12.304Z,23.45
2023-06-02T08:09:23.666Z,23.45
2023-06-02T08:09:35.244Z,23.46
2023-06-02T08:09:46.570Z,23.46
2023-06-02T08:09:58.152Z,23.46
2023-06-02T08:10:09.496Z,23.46
2023-06-02T08:10:21.076Z,23.46
2023-06-02T08:10:32.464Z,23.46
2023-06-02T08:10:44.073Z,23.47
2023-06-02T08:10:55.401Z,23.47
2023-06-02T08:11:06.997Z,23.47
2023-06-02T08:11:18.482Z,23.48
2023-06-02T08:11:30.472Z,23.48
2023-06-02T08:11:42.690Z,23.49
2023-06-02T08:11:54.527Z,23.49
2023-06-02T08:12:06.035Z,23.49
2023-06-02T08:12:18.087Z,23.49
2023-06-02T08:12:29.412Z,23.49
2023-06-02T08:12:40.991Z,23.50
2023-06-02T08:12:52.349Z,23.49
2023-06-02T08:13:03.918Z,23.49
2023-06-02T08:13:15.241Z,23.50
2023-06-02T08:13:27.037Z,23.50
2023-06-02T08:13:38.380Z,23.50
2023-06-02T08:13:49.962Z,23.51
2023-06-02T08:14:01.306Z,23.51
2023-06-02T08:14:12.869Z,23.52
2023-06-02T08:14:24.192Z,23.52
2023-06-02T08:14:35.795Z,23.52
2023-06-02T08:14:47.096Z,23.51
2023-06-02T08:14:58.704Z,23.52
2023-06-02T08:15:10.034Z,23.52
2023-06-02T08:15:21.767Z,23.53
2023-06-02T08:15:33.109Z,23.53
2023-06-02T08:15:45.933Z,23.53
2023-06-02T08:16:08.132Z,23.52
2023-06-02T08:16:30.379Z,23.52
2023-06-02T08:16:56.976Z,23.51
2023-06-02T08:17:01.046Z,23.51
2023-06-02T08:17:12.370Z,23.53
2023-06-02T08:17:23.954Z,23.53
2023-06-02T08:17:35.371Z,23.53
2023-06-02T08:17:47.212Z,23.54
2023-06-02T08:17:58.695Z,23.54
2023-06-02T08:18:10.351Z,23.55
2023-06-02T08:18:22.407Z,23.56
2023-06-02T08:18:34.163Z,23.56
2023-06-02T08:18:46.033Z,23.56
2023-06-02T08:18:57.491Z,23.57
2023-06-02T08:19:09.649Z,23.56
2023-06-02T08:19:21.219Z,23.56
2023-06-02T08:19:32.899Z,23.57
2023-06-02T08:19:44.264Z,23.57
2023-06-02T08:19:55.840Z,23.57
2023-06-02T08:20:07.189Z,23.58
2023-06-02T08:20:18.760Z,23.58
2023-06-02T08:20:30.074Z,23.58
2023-06-02T08:20:41.650Z,23.58
2023-06-02T08:20:53.062Z,23.59
2023-06-02T08:21:04.996Z,23.59
2023-06-02T08:21:16.473Z,23.59
2023-06-02T08:21:28.708Z,23.60
2023-06-02T08:21:40.088Z,23.59
2023-06-02T08:21:51.745Z,23.60
2023-06-02T08:22:03.157Z,23.60
2023-06-02T08:22:14.840Z,23.61
2023-06-02T08:22:26.247Z,23.60
2023-06-02T08:22:37.936Z,23.60
2023-06-02T08:22:49.288Z,23.61
2023-06-02T08:23:00.889Z,23.61
2023-06-02T08:23:12.238Z,23.61
2023-06-02T08:23:23.825Z,23.62
2023-06-02T08:23:35.182Z,23.62
2023-06-02T08:23:46.788Z,23.62
2023-06-02T08:23:58.220Z,23.62
2023-06-02T08:24:09.803Z,23.63
2023-06-02T08:24:21.133Z,23.63
2023-06-02T08:24:32.715Z,23.63
2023-06-02T08:24:44.072Z,23.63
2023-06-02T08:24:55.667Z,23.63
2023-06-02T08:25:07.066Z,23.64
2023-06-02T08:25:18.657Z,23.64
2023-06-02T08:25:29.966Z,23.64
2023-06-02T08:25:41.583Z,23.65
2023-06-02T08:25:52.915Z,23.64
2023-06-02T08:26:04.505Z,23.64
2023-06-02T08:26:15.829Z,23.65
2023-06-02T08:26:27.416Z,23.65
2023-06-02T08:26:38.785Z,23.66
2023-06-02T08:26:50.376Z,23.66
2023-06-02T08:27:01.696Z,23.66
2023-06-02T08:27:13.273Z,23.66
2023-06-02T08:27:24.593Z,23.66
2023-06-02T08:27:36.172Z,23.66
2023-06-02T08:27:47.496Z,23.67
2023-06-02T08:27:59.102Z,23.67
2023-06-02T08:28:10.462Z,23.67
2023-06-02T08:28:22.048Z,23.68
2023-06-02T08:28:33.419Z,23.67
2023-06-02T08:28:44.998Z,23.68
2023-06-02T08:28:56.328Z,23.68
2023-06-02T08:29:07.906Z,23.68
2023-06-02T08:29:19.238Z,23.68
2023-06-02T08:29:31.087Z,23.68
2023-06-02T08:29:42.844Z,23.69
2023-06-02T08:29:54.166Z,23.69
2023-06-02T08:30:05.758Z,23.69
2023-06-02T08:30:17.107Z,23.69
2023-06-02T08:30:28.697Z,23.69
2023-06-02T08:30:40.033Z,23.70
2023-06-02T08:30:51.717Z,23.71
2023-06-02T08:31:03.104Z,23.70
2023-06-02T08:31:14.820Z,23.71
2023-06-02T08:31:26.176Z,23.70
2023-06-02T08:31:38.080Z,23.72
2023-06-02T08:31:49.946Z,23.72
2023-06-02T08:32:01.328Z,23.72
2023-06-02T08:32:12.970Z,23.72
2023-06-02T08:32:27.020Z,23.72
2023-06-02T08:32:34.404Z,23.70
2023-06-02T08:32:45.740Z,23.72
2023-06-02T08:32:57.361Z,23.73
2023-06-02T08:33:08.762Z,23.73
2023-06-02T08:33:20.481Z,23.73
2023-06-02T08:33:31.798Z,23.72
2023-06-02T08:33:43.425Z,23.73
2023-06-02T08:33:54.784Z,23.73
2023-06-02T08:34:06.418Z,23.74
2023-06-02T08:34:17.740Z,23.73
2023-06-02T08:34:29.316Z,23.75
2023-06-02T08:34:40.635Z,23.74
2023-06-02T08:34:52.222Z,23.75
2023-06-02T08:35:03.585Z,23.74
2023-06-02T08:35:15.195Z,23.75
2023-06-02T08:35:26.654Z,23.75
2023-06-02T08:35:38.369Z,23.75
2023-06-02T08:35:49.801Z,23.76
2023-06-02T08:36:01.511Z,23.76
2023-06-02T08:36:12.955Z,23.75
2023-06-02T08:36:36.014Z,23.76
2023-06-02T08:36:47.777Z,23.76
2023-06-02T08:36:59.270Z,23.77
2023-06-02T08:37:10.870Z,23.77
2023-06-02T08:37:22.194Z,23.77
2023-06-02T08:37:33.801Z,23.77
2023-06-02T08:37:45.132Z,23.78
2023-06-02T08:37:56.736Z,23.78
2023-06-02T08:38:08.069Z,23.78
2023-06-02T08:38:19.653Z,23.78
2023-06-02T08:38:31.111Z,23.78
2023-06-02T08:38:42.714Z,23.78
2023-06-02T08:38:54.089Z,23.79
2023-06-02T08:39:05.640Z,23.79
2023-06-02T08:39:16.993Z,23.80
2023-06-02T08:39:28.571Z,23.81
2023-06-02T08:39:39.902Z,23.81
2023-06-02T08:39:51.497Z,23.81
2023-06-02T08:40:02.813Z,23.81
2023-06-02T08:40:14.457Z,23.82
2023-06-02T08:40:25.807Z,23.82
2023-06-02T08:40:37.396Z,23.83
2023-06-02T08:40:48.733Z,23.83
2023-06-02T08:41:00.338Z,23.84
2023-06-02T08:41:11.652Z,23.83
2023-06-02T08:41:23.219Z,23.85
2023-06-02T08:41:34.554Z,23.84
2023-06-02T08:41:46.161Z,23.85
2023-06-02T08:41:57.475Z,23.85
2023-06-02T08:42:09.072Z,23.86
2023-06-02T08:42:20.404Z,23.86
2023-06-02T08:42:32.019Z,23.86
2023-06-02T08:42:43.370Z,23.87
2023-06-02T08:42:54.924Z,23.87
2023-06-02T08:43:06.273Z,23.87
2023-06-02T08:43:17.871Z,23.87
2023-06-02T08:43:29.206Z,23.88
2023-06-02T08:43:40.806Z,23.88
2023-06-02T08:43:52.188Z,23.88
2023-06-02T08:44:03.767Z,23.88
2023-06-02T08:44:15.103Z,23.89
2023-06-02T08:44:26.703Z,23.89
2023-06-02T08:44:38.049Z,23.89
2023-06-02T08:44:49.629Z,23.89
2023-06-02T08:45:00.971Z,23.89
2023-06-02T08:45:12.566Z,23.90
2023-06-02T08:45:23.916Z,23.89
2023-06-02T08:45:35.538Z,23.90
2023-06-02T08:45:46.850Z,23.90
2023-06-02T08:45:58.497Z,23.90
2023-06-02T08:46:09.870Z,23.91
2023-06-02T08:46:21.476Z,23.91
2023-06-02T08:46:32.917Z,23.91
2023-06-02T08:46:44.772Z,23.91
2023-06-02T08:46:56.253Z,23.90
2023-06-02T08:47:07.947Z,23.91
2023-06-02T08:47:19.298Z,23.91
2023-06-02T08:47:30.949Z,23.91
2023-06-02T08:47:42.308Z,23.92
2023-06-02T08:47:53.984Z,23.92
2023-06-02T08:48:05.331Z,23.92
2023-06-02T08:48:16.903Z,23.92
2023-06-02T08:48:28.220Z,23.93
2023-06-02T08:48:39.810Z,23.93
2023-06-02T08:48:51.149Z,23.93
2023-06-02T08:49:02.747Z,23.92
2023-06-02T08:49:14.066Z,23.94
2023-06-02T08:49:25.672Z,23.93
2023-06-02T08:49:37.005Z,23.93
2023-06-02T08:49:48.609Z,23.94
2023-06-02T08:49:59.946Z,23.93
2023-06-02T08:50:11.554Z,23.94
2023-06-02T08:50:22.921Z,23.94
2023-06-02T08:50:34.550Z,23.94
2023-06-02T08:50:45.982Z,23.94
2023-06-02T08:50:57.635Z,23.95
2023-06-02T08:51:08.952Z,23.94
2023-06-02T08:51:20.526Z,23.95
2023-06-02T08:51:31.864Z,23.94
2023-06-02T08:51:43.443Z,23.95
2023-06-02T08:51:54.793Z,23.95
2023-06-02T08:52:06.393Z,23.96
2023-06-02T08:52:17.729Z,23.95
2023-06-02T08:52:29.292Z,23.96
2023-06-02T08:52:40.626Z,23.96
2023-06-02T08:52:52.211Z,23.96
2023-06-02T08:53:03.536Z,23.96
2023-06-02T08:53:15.144Z,23.96
2023-06-02T08:53:26.469Z,23.97
2023-06-02T08:53:38.072Z,23.97
2023-06-02T08:53:49.390Z,23.96
2023-06-02T08:54:01.014Z,23.96
2023-06-02T08:54:12.327Z,23.97
2023-06-02T08:54:23.934Z,23.97
2023-06-02T08:54:35.266Z,23.97
2023-06-02T08:54:46.844Z,23.97
2023-06-02T08:54:58.182Z,23.98
2023-06-02T08:55:09.756Z,23.97
2023-06-02T08:55:21.071Z,23.97
2023-06-02T08:55:32.668Z,23.98
2023-06-02T08:55:44.008Z,23.98
2023-06-02T08:55:55.587Z,23.98
2023-06-02T08:56:07.167Z,23.98
2023-06-02T08:56:19.018Z,23.98
2023-06-02T08:56:30.426Z,23.99
2023-06-02T08:56:42.068Z,23.99
2023-06-02T08:56:53.466Z,23.98
2023-06-02T08:57:05.076Z,23.98
2023-06-02T08:57:16.423Z,23.99
2023-06-02T08:57:28.009Z,24.00
2023-06-02T08:57:39.324Z,23.99
2023-06-02T08:57:50.937Z,23.99
2023-06-02T08:58:02.288Z,24.00
2023-06-02T08:58:13.937Z,23.99
2023-06-02T08:58:25.260Z,24.00
2023-06-02T08:58:36.856Z,24.00
2023-06-02T08:58:48.280Z,24.00
2023-06-02T08:58:59.872Z,24.00
2023-06-02T08:59:11.212Z,24.00
2023-06-02T08:59:22.795Z,24.01
2023-06-02T08:59:34.110Z,24.01
2023-06-02T08:59:45.686Z,24.01
2023-06-02T08:59:57.010Z,24.01
2023-06-02T09:00:08.650Z,24.01
2023-06-02T09:00:19.956Z,24.01
2023-06-02T09:00:31.520Z,24.02
2023-06-02T09:00:42.871Z,24.02
2023-06-02T09:00:54.456Z,24.02
2023-06-02T09:01:05.795Z,24.02
2023-06-02T09:01:17.462Z,24.02
2023-06-02T09:01:28.890Z,24.02
2023-06-02T09:01:40.492Z,24.02
2023-06-02T09:01:51.887Z,24.02
2023-06-02T09:02:03.564Z,24.02
2023-06-02T09:02:14.955Z,24.02
2023-06-02T09:02:26.594Z,24.03
2023-06-02T09:02:37.960Z,24.03
2023-06-02T09:02:49.616Z,24.04
2023-06-02T09:03:00.963Z,24.03
2023-06-02T09:03:20.386Z,24.03
2023-06-02T09:03:44.717Z,24.02
2023-06-02T09:03:48.701Z,24.02
2023-06-02T09:04:00.698Z,24.04
2023-06-02T09:04:12.092Z,24.04
2023-06-02T09:04:23.714Z,24.04
2023-06-02T09:04:35.142Z,24.05
2023-06-02T09:04:46.810Z,24.06
2023-06-02T09:04:58.210Z,24.07
2023-06-02T09:05:09.834Z,24.07
2023-06-02T09:05:21.154Z,24.08
2023-06-02T09:05:32.740Z,24.09
2023-06-02T09:05:44.065Z,24.09
2023-06-02T09:05:55.663Z,24.09
2023-06-02T09:06:07.201Z,24.10
2023-06-02T09:06:18.923Z,24.10
2023-06-02T09:06:30.232Z,24.10
2023-06-02T09:06:41.812Z,24.11
2023-06-02T09:06:53.142Z,24.10
2023-06-02T09:07:04.743Z,24.12
2023-06-02T09:07:16.074Z,24.12
2023-06-02T09:07:27.645Z,24.12
2023-06-02T09:07:38.978Z,24.13
2023-06-02T09:07:50.578Z,24.12
2023-06-02T09:08:01.900Z,24.13
2023-06-02T09:08:13.525Z,24.14
2023-06-02T09:08:24.861Z,24.13
2023-06-02T09:08:36.443Z,24.14
2023-06-02T09:08:47.781Z,24.14
2023-06-02T09:08:59.388Z,24.15
2023-06-02T09:09:10.702Z,24.15
2023-06-02T09:09:22.279Z,24.15
2023-06-02T09:09:33.599Z,24.15
2023-06-02T09:09:45.186Z,24.15
2023-06-02T09:09:58.437Z,24.15
2023-06-02T09:10:08.054Z,24.14
2023-06-02T09:10:19.654Z,24.16
2023-06-02T09:10:30.997Z,24.15
2023-06-02T09:10:42.590Z,24.16
2023-06-02T09:10:53.919Z,24.16
2023-06-02T09:11:05.509Z,24.17
2023-06-02T09:11:16.832Z,24.17
2023-06-02T09:11:28.420Z,24.16
2023-06-02T09:11:39.738Z,24.18
2023-06-02T09:11:51.338Z,24.17
2023-06-02T09:12:02.697Z,24.17
2023-06-02T09:12:14.302Z,24.18
2023-06-02T09:12:25.806Z,24.17
2023-06-02T09:12:37.508Z,24.18
2023-06-02T09:12:48.866Z,24.18
2023-06-02T09:13:00.415Z,24.19
2023-06-02T09:13:11.780Z,24.18
2023-06-02T09:13:23.360Z,24.18
2023-06-02T09:13:41.588Z,24.18
2023-06-02T09:13:46.717Z,24.17
2023-06-02T09:13:58.058Z,24.17
2023-06-02T09:14:09.636Z,24.18
2023-06-02T09:14:20.993Z,24.18
2023-06-02T09:14:32.559Z,24.19
2023-06-02T09:14:43.895Z,24.18
2023-06-02T09:14:55.466Z,24.19
2023-06-02T09:15:08.169Z,24.19
2023-06-02T09:15:17.576Z,24.18
2023-06-02T09:15:29.187Z,24.20
2023-06-02T09:15:40.528Z,24.19
2023-06-02T09:15:52.180Z,24.19
2023-06-02T09:16:04.302Z,24.19
2023-06-02T09:16:13.857Z,24.20
2023-06-02T09:16:25.548Z,24.20
2023-06-02T09:16:36.967Z,24.20
2023-06-02T09:16:48.597Z,24.20
2023-06-02T09:16:59.963Z,24.20
2023-06-02T09:17:11.527Z,24.20
2023-06-02T09:17:22.896Z,24.21
2023-06-02T09:17:34.533Z,24.21
2023-06-02T09:17:45.880Z,24.21
2023-06-02T09:17:57.482Z,24.21
2023-06-02T09:18:08.845Z,24.22
2023-06-02T09:18:21.234Z,24.22
2023-06-02T09:18:31.503Z,24.22
2023-06-02T09:18:43.111Z,24.22
2023-06-02T09:18:54.462Z,24.23
2023-06-02T09:19:06.058Z,24.24
2023-06-02T09:19:17.389Z,24.23
2023-06-02T09:19:28.969Z,24.23
2023-06-02T09:19:40.290Z,24.24
2023-06-02T09:19:51.889Z,24.24
2023-06-02T09:20:03.206Z,24.24
2023-06-02T09:20:14.790Z,24.24
2023-06-02T09:20:26.139Z,24.25
2023-06-02T09:20:37.704Z,24.25
2023-06-02T09:20:49.025Z,24.25
2023-06-02T09:21:00.746Z,24.25
2023-06-02T09:21:12.091Z,24.25
2023-06-02T09:21:23.727Z,24.26
2023-06-02T09:21:35.108Z,24.26
2023-06-02T09:21:46.771Z,24.26
2023-06-02T09:21:58.106Z,24.27
2023-06-02T09:22:09.806Z,24.27
2023-06-02T09:22:21.187Z,24.27
2023-06-02T09:22:35.598Z,24.27
2023-06-02T09:22:49.173Z,24.26
2023-06-02T09:22:56.860Z,24.25
2023-06-02T09:23:08.234Z,24.26
2023-06-02T09:23:19.891Z,24.27
2023-06-02T09:23:33.470Z,24.27
2023-06-02T09:23:42.712Z,24.26
2023-06-02T09:24:11.439Z,24.27
2023-06-02T09:24:16.344Z,24.27
2023-06-02T09:24:27.668Z,24.28
2023-06-02T09:24:39.241Z,24.28
2023-06-02T09:24:50.561Z,24.28
2023-06-02T09:25:02.155Z,24.29
2023-06-02T09:25:13.475Z,24.28
2023-06-02T09:25:25.063Z,24.29
2023-06-02T09:25:36.425Z,24.29
2023-06-02T09:25:48.064Z,24.30
2023-06-02T09:26:05.939Z,24.29
2023-06-02T09:26:16.902Z,24.27
2023-06-02T09:26:23.566Z,24.27
2023-06-02T09:26:35.062Z,24.28
2023-06-02T09:26:46.636Z,24.30
2023-06-02T09:26:57.960Z,24.31
2023-06-02T09:27:09.537Z,24.32
2023-06-02T09:27:20.858Z,24.33
2023-06-02T09:27:32.450Z,24.34
2023-06-02T09:27:43.935Z,24.35
2023-06-02T09:27:55.509Z,24.36
2023-06-02T09:28:06.841Z,24.37
2023-06-02T09:28:18.443Z,24.38
2023-06-02T09:28:32.305Z,24.38
2023-06-02T09:28:41.661Z,24.37
2023-06-02T09:28:53.254Z,24.40
2023-06-02T09:29:04.656Z,24.40
2023-06-02T09:29:16.319Z,24.41
2023-06-02T09:29:27.654Z,24.41
2023-06-02T09:29:39.249Z,24.42
2023-06-02T09:29:51.815Z,24.42
2023-06-02T09:30:02.609Z,24.41
2023-06-02T09:30:14.235Z,24.43
2023-06-02T09:30:25.560Z,24.44
2023-06-02T09:30:37.172Z,24.44
2023-06-02T09:30:48.556Z,24.44
2023-06-02T09:31:00.167Z,24.44
2023-06-02T09:31:11.628Z,24.44
2023-06-02T09:31:23.321Z,24.45
2023-06-02T09:31:34.733Z,24.45
2023-06-02T09:31:46.394Z,24.46
2023-06-02T09:31:57.831Z,24.46
2023-06-02T09:32:09.496Z,24.46
2023-06-02T09:32:20.927Z,24.46
2023-06-02T09:32:32.710Z,24.46
2023-06-02T09:32:44.205Z,24.47
2023-06-02T09:32:55.878Z,24.47
2023-06-02T09:33:07.280Z,24.47
2023-06-02T09:33:19.058Z,24.47
2023-06-02T09:33:30.444Z,24.48
2023-06-02T09:33:42.009Z,24.47
2023-06-02T09:33:53.359Z,24.48
2023-06-02T09:34:05.019Z,24.47
2023-06-02T09:34:16.366Z,24.48
2023-06-02T09:34:27.962Z,24.48
2023-06-02T09:34:39.279Z,24.48
2023-06-02T09:34:50.856Z,24.47
2023-06-02T09:35:02.184Z,24.48
2023-06-02T09:35:13.779Z,24.48
2023-06-02T09:35:25.100Z,24.49
2023-06-02T09:35:36.687Z,24.49
2023-06-02T09:35:48.014Z,24.49
2023-06-02T09:36:01.216Z,24.49
2023-06-02T09:36:10.634Z,24.49
2023-06-02T09:36:22.247Z,24.49
2023-06-02T09:36:33.575Z,24.49
2023-06-02T09:36:45.200Z,24.49
2023-06-02T09:36:56.505Z,24.49
2023-06-02T09:37:08.090Z,24.49
2023-06-02T09:37:19.462Z,24.50
2023-06-02T09:37:31.041Z,24.50
2023-06-02T09:37:42.366Z,24.49
2023-06-02T09:37:53.939Z,24.49
2023-06-02T09:38:05.293Z,24.50
2023-06-02T09:38:16.889Z,24.50
2023-06-02T09:38:28.212Z,24.50
2023-06-02T09:38:39.809Z,24.49
2023-06-02T09:38:51.137Z,24.49
2023-06-02T09:39:02.780Z,24.50
2023-06-02T09:39:14.147Z,24.50
2023-06-02T09:39:25.731Z,24.49
2023-06-02T09:39:37.064Z,24.51
2023-06-02T09:39:48.640Z,24.50
2023-06-02T09:39:59.965Z,24.51
2023-06-02T09:40:11.543Z,24.51
2023-06-02T09:40:22.884Z,24.51
2023-06-02T09:40:34.491Z,24.51
2023-06-02T09:40:45.990Z,24.51
2023-06-02T09:40:57.558Z,24.51
2023-06-02T09:41:08.914Z,24.50
2023-06-02T09:41:21.489Z,24.51
2023-06-02T09:41:30.722Z,24.52
2023-06-02T09:41:42.303Z,24.51
2023-06-02T09:41:53.644Z,24.51
2023-06-02T09:42:05.239Z,24.51
2023-06-02T09:42:16.580Z,24.51
2023-06-02T09:42:28.162Z,24.51
2023-06-02T09:42:39.495Z,24.51
2023-06-02T09:42:51.096Z,24.50
2023-06-02T09:43:02.406Z,24.50
2023-06-02T09:43:13.980Z,24.51
2023-06-02T09:43:25.320Z,24.51
2023-06-02T09:43:36.933Z,24.51
2023-06-02T09:43:48.283Z,24.52
2023-06-02T09:43:59.873Z,24.51
2023-06-02T09:44:11.190Z,24.51
2023-06-02T09:44:22.829Z,24.51
2023-06-02T09:44:34.162Z,24.51
2023-06-02T09:44:45.773Z,24.51
2023-06-02T09:44:57.106Z,24.51
2023-06-02T09:45:08.687Z,24.51
2023-06-02T09:45:20.027Z,24.51
2023-06-02T09:45:31.679Z,24.52
2023-06-02T09:45:43.133Z,24.51
2023-06-02T09:45:54.922Z,24.52
2023-06-02T09:46:06.525Z,24.51
2023-06-02T09:46:18.387Z,24.51
2023-06-02T09:46:29.849Z,24.52
2023-06-02T09:46:41.806Z,24.51
2023-06-02T09:46:53.466Z,24.51
2023-06-02T09:47:05.227Z,24.51
2023-06-02T09:47:16.632Z,24.51
2023-06-02T09:47:28.445Z,24.52
2023-06-02T09:47:40.049Z,24.51
2023-06-02T09:47:51.850Z,24.51
2023-06-02T09:48:03.235Z,24.51
2023-06-02T09:48:15.011Z,24.51
2023-06-02T09:48:26.414Z,24.51
2023-06-02T09:48:38.129Z,24.51
2023-06-02T09:48:49.615Z,24.52
2023-06-02T09:49:01.293Z,24.52
2023-06-02T09:49:12.787Z,24.51
2023-06-02T09:49:24.412Z,24.51
2023-06-02T09:49:35.746Z,24.51
2023-06-02T09:49:47.331Z,24.52
2023-06-02T09:49:58.674Z,24.52
2023-06-02T09:50:10.331Z,24.51
2023-06-02T09:50:21.660Z,24.52
2023-06-02T09:50:33.250Z,24.52
2023-06-02T09:50:44.580Z,24.51
2023-06-02T09:50:56.166Z,24.52
2023-06-02T09:51:07.508Z,24.52
2023-06-02T09:51:19.095Z,24.52
2023-06-02T09:51:30.429Z,24.52
2023-06-02T09:51:42.007Z,24.52
2023-06-02T09:51:53.313Z,24.52
2023-06-02T09:52:04.915Z,24.52
2023-06-02T09:52:16.346Z,24.52
2023-06-02T09:52:28.008Z,24.52
2023-06-02T09:52:39.366Z,24.52
2023-06-02T09:52:50.944Z,24.52
2023-06-02T09:53:02.278Z,24.52
2023-06-02T09:53:13.860Z,24.52
2023-06-02T09:53:25.198Z,24.52
2023-06-02T09:53:36.794Z,24.52
2023-06-02T09:53:48.120Z,24.53
2023-06-02T09:53:59.706Z,24.53
2023-06-02T09:54:11.065Z,24.53
2023-06-02T09:54:22.630Z,24.52
2023-06-02T09:54:33.949Z,24.52
2023-06-02T09:54:45.532Z,24.53
2023-06-02T09:54:56.857Z,24.53
2023-06-02T09:55:08.473Z,24.52
2023-06-02T09:55:19.902Z,24.52
2023-06-02T09:55:31.447Z,24.53
2023-06-02T09:55:42.776Z,24.52
2023-06-02T09:55:54.385Z,24.53
2023-06-02T09:56:05.922Z,24.53
2023-06-02T09:56:17.551Z,24.53
2023-06-02T09:56:28.879Z,24.53
2023-06-02T09:56:40.469Z,24.53
2023-06-02T09:56:51.795Z,24.53
2023-06-02T09:57:03.377Z,24.53
2023-06-02T09:57:14.755Z,24.52
2023-06-02T09:57:26.335Z,24.54
2023-06-02T09:57:37.702Z,24.53
2023-06-02T09:57:49.274Z,24.53
2023-06-02T09:58:00.618Z,24.54
2023-06-02T09:58:12.184Z,24.54
2023-06-02T09:58:23.513Z,24.55
2023-06-02T09:58:35.123Z,24.54
2023-06-02T09:58:46.457Z,24.54
2023-06-02T09:58:58.058Z,24.55
2023-06-02T09:59:09.411Z,24.55
2023-06-02T09:59:20.995Z,24.55
2023-06-02T09:59:32.328Z,24.55
2023-06-02T09:59:43.914Z,24.54
2023-06-02T09:59:55.249Z,24.54
2023-06-02T10:00:06.846Z,24.55
2023-06-02T10:00:18.214Z,24.55
2023-06-02T10:00:29.801Z,24.56
2023-06-02T10:00:41.148Z,24.55
2023-06-02T10:00:52.784Z,24.56
2023-06-02T10:01:04.291Z,24.56
2023-06-02T10:01:16.099Z,24.56
2023-06-02T10:01:27.458Z,24.56
2023-06-02T10:01:39.109Z,24.56
2023-06-02T10:01:50.606Z,24.56
2023-06-02T10:02:02.339Z,24.56
2023-06-02T10:02:13.773Z,24.56
2023-06-02T10:02:25.463Z,24.57
2023-06-02T10:02:38.416Z,24.56
2023-06-02T10:02:47.901Z,24.55
2023-06-02T10:02:59.615Z,24.56
2023-06-02T10:03:11.151Z,24.56
2023-06-02T10:03:22.872Z,24.56
2023-06-02T10:03:34.353Z,24.56
2023-06-02T10:03:46.229Z,24.56
2023-06-02T10:03:57.656Z,24.57
2023-06-02T10:04:09.293Z,24.57
2023-06-02T10:04:20.589Z,24.57
2023-06-02T10:04:32.175Z,24.57
2023-06-02T10:04:43.538Z,24.57
2023-06-02T10:04:55.103Z,24.57
2023-06-02T10:05:06.447Z,24.56
2023-06-02T10:05:18.021Z,24.57
2023-06-02T10:05:29.473Z,24.58
2023-06-02T10:05:41.067Z,24.57
2023-06-02T10:05:52.398Z,24.57
2023-06-02T10:06:04.311Z,24.57
2023-06-02T10:06:16.112Z,24.58
2023-06-02T10:06:27.447Z,24.57
2023-06-02T10:06:39.096Z,24.58
2023-06-02T10:06:50.423Z,24.58
2023-06-02T10:07:02.001Z,24.58
2023-06-02T10:07:13.325Z,24.57
2023-06-02T10:07:24.930Z,24.58
2023-06-02T10:07:36.253Z,24.58
2023-06-02T10:07:47.855Z,24.58
2023-06-02T10:07:59.206Z,24.58
2023-06-02T10:08:10.778Z,24.58
2023-06-02T10:08:22.112Z,24.58
2023-06-02T10:08:33.694Z,24.58
2023-06-02T10:08:45.014Z,24.58
2023-06-02T10:08:56.646Z,24.58
2023-06-02T10:09:07.951Z,24.58
2023-06-02T10:09:19.549Z,24.59
2023-06-02T10:09:30.893Z,24.59
2023-06-02T10:09:42.501Z,24.58
2023-06-02T10:09:53.815Z,24.58
2023-06-02T10:10:05.393Z,24.59
2023-06-02T10:10:16.709Z,24.59
2023-06-02T10:10:28.286Z,24.59
2023-06-02T10:10:39.610Z,24.59
2023-06-02T10:10:51.202Z,24.58
2023-06-02T10:11:02.779Z,24.58
2023-06-02T10:11:14.546Z,24.58
2023-06-02T10:11:25.896Z,24.58
2023-06-02T10:11:37.460Z,24.59
2023-06-02T10:11:48.785Z,24.59
2023-06-02T10:12:00.385Z,24.58
2023-06-02T10:12:11.701Z,24.59
2023-06-02T10:12:23.321Z,24.59
2023-06-02T10:12:34.647Z,24.59
2023-06-02T10:12:46.257Z,24.59
2023-06-02T10:12:57.576Z,24.59
2023-06-02T10:13:09.175Z,24.59
2023-06-02T10:13:20.506Z,24.59
2023-06-02T10:13:32.087Z,24.59
2023-06-02T10:13:43.405Z,24.59
2023-06-02T10:13:56.571Z,24.60
2023-06-02T10:14:06.014Z,24.60
2023-06-02T10:14:17.585Z,24.60
2023-06-02T10:14:28.913Z,24.60
2023-06-02T10:14:40.526Z,24.60
2023-06-02T10:14:52.122Z,24.60
2023-06-02T10:15:03.723Z,24.59